Time;durP1;ratioP1;P1;durP2;ratioP2;P2;SDS_P1;SDS_P2;PMS_P1;PMS_P2;Temp;Humidity;BMP_temperature;BMP_pressure;BME280_temperature;BME280_humidity;BME280_pressure;Samples;Min_cycle;Max_cycle;Signal;HPM_P1;HPM_P2
2021/12/16 00:09:01;;;;;;;38.22;16.90;;;9.50;99.90;;;;;;10367317;28;84073;-52
2021/12/16 00:30:34;;;;;;;38.42;16.40;;;9.30;99.90;;;;;;10374511;28;86146;-53
2021/12/16 00:35:31;;;;;;;44.15;17.95;;;9.30;99.90;;;;;;10374262;28;84223;-54
2021/12/16 00:40:32;;;;;;;40.45;16.58;;;9.30;99.90;;;;;;10374250;28;84131;-57
2021/12/16 00:45:41;;;;;;;40.85;16.63;;;9.30;99.90;;;;;;10355754;28;86102;-52
2021/12/16 00:55:50;;;;;;;40.63;16.15;;;9.30;99.90;;;;;;10372753;28;86234;-53
2021/12/16 01:01:06;;;;;;;40.88;16.88;;;9.30;99.90;;;;;;10372251;28;86044;-51
2021/12/16 01:59:35;;;;;;;45.35;17.63;;;9.20;99.90;;;;;;10394380;28;86732;-53
2021/12/16 02:04:42;;;;;;;44.22;17.52;;;9.10;99.90;;;;;;10388788;28;85900;-52
2021/12/16 02:09:45;;;;;;;45.92;17.27;;;9.10;99.90;;;;;;10419397;22;85908;-46
2021/12/16 02:31:32;;;;;;;44.22;16.42;;;8.80;99.90;;;;;;10460641;27;86154;-47
2021/12/16 02:36:43;;;;;;;42.50;16.58;;;8.80;99.90;;;;;;10477665;27;84966;-46
2021/12/16 02:41:47;;;;;;;44.85;15.60;;;8.90;99.90;;;;;;10494793;27;84064;-45
2021/12/16 02:52:17;;;;;;;42.95;16.35;;;9.10;99.90;;;;;;10491240;27;87285;-48
2021/12/16 02:57:19;;;;;;;42.25;15.07;;;9.10;99.90;;;;;;10451979;27;84616;-46
2021/12/16 03:02:23;;;;;;;44.78;16.42;;;9.20;99.90;;;;;;10450796;28;87138;-45
2021/12/16 03:07:24;;;;;;;42.33;16.67;;;9.20;99.90;;;;;;10461802;27;84916;-45
2021/12/16 03:17:44;;;;;;;42.08;15.98;;;9.30;99.90;;;;;;10462889;27;86956;-46
2021/12/16 03:23:14;;;;;;;44.28;16.38;;;9.30;99.90;;;;;;10466649;27;86106;-47
2021/12/16 03:38:27;;;;;;;46.47;15.93;;;9.40;99.90;;;;;;10466670;27;86689;-45
2021/12/16 03:43:31;;;;;;;52.63;16.83;;;9.50;99.90;;;;;;10455380;27;84787;-47
2021/12/16 03:48:41;;;;;;;42.67;15.70;;;9.60;99.90;;;;;;10475573;27;86110;-47
2021/12/16 03:53:45;;;;;;;47.50;17.30;;;9.60;99.90;;;;;;10491435;27;87093;-46
2021/12/16 03:58:52;;;;;;;39.20;14.90;;;9.70;99.90;;;;;;10477148;27;86985;-46
2021/12/16 04:03:54;;;;;;;48.67;17.33;;;9.70;99.90;;;;;;10491069;27;84980;-47
2021/12/16 04:08:55;;;;;;;43.95;17.00;;;9.70;99.90;;;;;;10472822;27;86015;-45
2021/12/16 04:14:00;;;;;;;50.25;17.92;;;9.70;99.90;;;;;;10472485;27;85754;-46
2021/12/16 04:19:12;;;;;;;46.05;17.70;;;9.70;99.90;;;;;;10472704;27;85048;-46
2021/12/16 04:24:14;;;;;;;51.42;18.00;;;9.80;99.90;;;;;;10474046;27;86014;-46
2021/12/16 04:29:17;;;;;;;46.97;17.67;;;9.70;99.90;;;;;;10480505;27;86993;-46
2021/12/16 04:34:18;;;;;;;53.00;17.35;;;9.70;99.90;;;;;;10478115;27;86910;-44
2021/12/16 04:39:23;;;;;;;42.45;15.40;;;9.80;99.90;;;;;;10472592;27;86032;-47
2021/12/16 04:44:26;;;;;;;38.35;16.65;;;9.80;99.90;;;;;;10477034;27;84752;-45
2021/12/16 04:49:28;;;;;;;50.72;17.33;;;9.80;99.90;;;;;;10479746;27;86016;-46
2021/12/16 04:54:31;;;;;;;42.05;14.73;;;9.70;99.90;;;;;;10476438;27;86957;-44
2021/12/16 04:59:35;;;;;;;32.05;13.60;;;9.70;99.90;;;;;;10471200;27;85734;-46
2021/12/16 05:04:37;;;;;;;38.53;13.80;;;9.60;99.90;;;;;;10454901;27;86904;-46
2021/12/16 05:10:03;;;;;;;34.53;13.55;;;9.70;99.90;;;;;;10469897;27;85941;-45
2021/12/16 05:14:59;;;;;;;37.78;14.02;;;9.60;99.90;;;;;;10452981;27;84134;-45
2021/12/16 05:20:06;;;;;;;32.53;12.93;;;9.70;99.90;;;;;;10452606;27;86952;-47
2021/12/16 05:25:16;;;;;;;39.20;13.80;;;9.70;99.90;;;;;;10468137;27;86933;-45
2021/12/16 05:30:16;;;;;;;35.08;13.13;;;9.70;99.90;;;;;;10452865;28;85834;-45
2021/12/16 05:35:21;;;;;;;39.10;12.90;;;9.60;99.90;;;;;;10450970;28;85732;-46
2021/12/16 05:40:25;;;;;;;36.78;14.27;;;9.60;99.90;;;;;;10455263;27;85205;-44
2021/12/16 05:45:38;;;;;;;41.42;14.75;;;9.60;99.90;;;;;;10438208;28;85995;-46
2021/12/16 05:50:42;;;;;;;38.80;15.05;;;9.60;99.90;;;;;;10451356;28;86980;-49
2021/12/16 05:55:43;;;;;;;47.42;14.80;;;9.70;99.90;;;;;;10433947;28;86256;-47
2021/12/16 06:01:11;;;;;;;38.33;14.73;;;9.70;99.90;;;;;;10425107;28;86065;-46
2021/12/16 06:06:13;;;;;;;37.42;15.20;;;9.70;99.90;;;;;;10445407;28;85899;-46
2021/12/16 06:11:21;;;;;;;39.45;13.70;;;9.60;99.90;;;;;;10451022;27;84930;-46
2021/12/16 06:27:12;;;;;;;42.05;14.80;;;9.60;99.90;;;;;;10450916;28;84902;-47
2021/12/16 06:32:13;;;;;;;43.67;14.73;;;9.70;99.90;;;;;;10450220;28;84374;-45
2021/12/16 06:37:14;;;;;;;42.30;15.75;;;9.70;99.90;;;;;;10451858;28;84539;-45
2021/12/16 06:42:16;;;;;;;36.92;13.82;;;9.70;99.90;;;;;;10433370;28;84959;-45
2021/12/16 06:47:32;;;;;;;36.90;14.18;;;9.70;99.90;;;;;;10449486;28;86515;-45
2021/12/16 06:52:39;;;;;;;46.28;16.85;;;9.70;99.90;;;;;;10448280;28;84377;-45
2021/12/16 06:57:44;;;;;;;35.45;14.00;;;9.70;99.90;;;;;;10450803;27;84972;-45
2021/12/16 07:03:06;;;;;;;39.20;15.00;;;9.70;99.90;;;;;;10450693;27;84971;-45
2021/12/16 07:08:11;;;;;;;47.03;15.48;;;9.70;99.90;;;;;;10450105;28;84911;-46
2021/12/16 07:13:19;;;;;;;37.15;14.40;;;9.70;99.90;;;;;;10447083;28;84293;-45
2021/12/16 07:18:20;;;;;;;39.97;15.02;;;9.80;99.90;;;;;;10450696;28;84035;-47
2021/12/16 07:23:21;;;;;;;41.78;16.17;;;9.80;99.90;;;;;;10431184;28;85995;-45
2021/12/16 07:28:22;;;;;;;44.58;15.43;;;9.80;99.90;;;;;;10433343;28;86740;-55
2021/12/16 07:33:23;;;;;;;40.33;15.35;;;9.80;99.90;;;;;;10448143;28;85157;-57
2021/12/16 07:38:24;;;;;;;47.42;15.80;;;9.80;99.90;;;;;;10448191;28;85524;-51
2021/12/16 07:48:41;;;;;;;43.65;15.82;;;9.80;99.90;;;;;;10444952;27;84196;-48
2021/12/16 07:53:42;;;;;;;47.63;16.85;;;9.80;99.90;;;;;;10450652;28;84218;-52
2021/12/16 07:58:43;;;;;;;44.30;15.80;;;9.90;99.90;;;;;;10449154;28;85310;-50
2021/12/16 08:03:44;;;;;;;41.50;15.20;;;9.80;99.90;;;;;;10450103;28;84820;-52
2021/12/16 08:08:44;;;;;;;42.28;15.23;;;9.90;99.90;;;;;;10449935;27;84270;-55
2021/12/16 08:13:45;;;;;;;39.72;14.20;;;9.90;99.90;;;;;;10397502;22;84982;-60
2021/12/16 08:18:46;;;;;;;44.35;15.07;;;9.90;99.90;;;;;;10367519;28;84177;-57
2021/12/16 08:23:47;;;;;;;38.42;13.60;;;9.90;99.90;;;;;;10367759;28;84927;-56
2021/12/16 08:28:47;;;;;;;35.20;14.05;;;9.90;99.90;;;;;;10371110;28;84918;-56
2021/12/16 08:33:49;;;;;;;44.22;14.70;;;9.90;99.90;;;;;;10366330;28;84199;-55
2021/12/16 08:38:49;;;;;;;42.38;14.30;;;9.90;99.90;;;;;;10366719;28;84270;-57
2021/12/16 08:43:50;;;;;;;44.78;15.85;;;9.90;99.90;;;;;;10362701;28;84177;-53
2021/12/16 08:48:52;;;;;;;40.83;14.43;;;9.90;99.90;;;;;;10363650;28;85108;-56
2021/12/16 08:53:53;;;;;;;38.58;14.52;;;9.90;99.90;;;;;;10365523;28;85685;-54
2021/12/16 08:58:55;;;;;;;46.50;16.15;;;9.90;99.90;;;;;;10370852;28;86800;-54
2021/12/16 09:03:57;;;;;;;42.10;15.25;;;9.80;99.90;;;;;;10371865;28;84505;-53
2021/12/16 09:08:59;;;;;;;48.92;16.50;;;10.00;99.90;;;;;;10373381;28;83989;-56
2021/12/16 09:14:00;;;;;;;44.90;16.35;;;9.90;99.90;;;;;;10372852;28;84906;-54
2021/12/16 09:19:04;;;;;;;42.08;16.30;;;9.90;99.90;;;;;;10373042;28;84027;-54
2021/12/16 09:24:07;;;;;;;48.60;15.95;;;10.00;99.90;;;;;;10372835;28;85132;-51
2021/12/16 09:29:08;;;;;;;38.88;14.85;;;10.00;99.90;;;;;;10372801;28;84008;-55
2021/12/16 09:34:09;;;;;;;46.88;15.82;;;10.00;99.90;;;;;;10372852;28;84008;-56
2021/12/16 09:39:14;;;;;;;51.47;16.30;;;10.10;99.90;;;;;;10354089;28;85688;-52
2021/12/16 09:44:16;;;;;;;45.75;16.13;;;10.10;99.90;;;;;;10372648;28;84809;-56
2021/12/16 09:49:18;;;;;;;49.47;16.00;;;10.10;99.90;;;;;;10371954;28;84919;-54
2021/12/16 09:54:24;;;;;;;49.70;16.80;;;10.10;99.90;;;;;;10371042;28;84976;-54
2021/12/16 09:59:27;;;;;;;43.13;15.00;;;10.20;99.90;;;;;;10371940;28;85062;-53
2021/12/16 10:04:31;;;;;;;50.70;15.90;;;10.20;99.90;;;;;;10372340;28;84116;-57
2021/12/16 10:09:32;;;;;;;49.60;16.35;;;10.30;99.90;;;;;;10371011;28;84136;-56
2021/12/16 10:14:57;;;;;;;44.08;15.50;;;10.30;99.90;;;;;;10371375;28;84115;-57
2021/12/16 10:19:57;;;;;;;45.60;16.45;;;10.40;99.90;;;;;;10371526;28;84507;-57
2021/12/16 10:25:17;;;;;;;45.20;17.10;;;10.50;99.90;;;;;;10371925;28;84158;-52
2021/12/16 10:30:18;;;;;;;41.85;15.23;;;10.40;99.90;;;;;;10371452;28;84847;-54
2021/12/16 10:35:31;;;;;;;43.50;15.43;;;10.40;99.90;;;;;;10370406;28;85087;-54
2021/12/16 10:40:45;;;;;;;38.30;15.57;;;10.40;99.90;;;;;;10373385;28;84722;-57
2021/12/16 10:45:51;;;;;;;38.35;14.77;;;10.50;99.90;;;;;;10372041;28;84146;-55
2021/12/16 10:51:01;;;;;;;41.85;15.02;;;10.50;99.90;;;;;;10373637;28;84038;-56
2021/12/16 10:56:03;;;;;;;35.53;14.25;;;10.40;99.90;;;;;;10371408;28;85986;-56
2021/12/16 11:01:04;;;;;;;38.92;14.65;;;10.50;99.90;;;;;;10370300;28;84219;-56
2021/12/16 11:06:38;;;;;;;40.88;14.25;;;10.50;99.90;;;;;;10371249;28;84408;-56
2021/12/16 11:11:38;;;;;;;37.08;14.15;;;10.60;99.90;;;;;;10369291;28;84901;-53
2021/12/16 11:16:39;;;;;;;39.78;14.93;;;10.70;99.90;;;;;;10369876;28;84304;-56
2021/12/16 11:21:40;;;;;;;42.65;15.15;;;10.70;99.90;;;;;;10368453;28;84044;-57
2021/12/16 11:26:43;;;;;;;36.92;14.45;;;10.70;99.90;;;;;;10369604;28;84476;-56
2021/12/16 11:31:48;;;;;;;38.22;14.02;;;10.70;99.90;;;;;;10369617;28;85372;-52
2021/12/16 11:36:54;;;;;;;36.95;14.65;;;10.70;99.90;;;;;;10369450;28;84023;-53
2021/12/16 11:42:02;;;;;;;39.80;14.80;;;10.80;99.90;;;;;;10370275;28;84130;-57
2021/12/16 11:47:09;;;;;;;38.17;14.77;;;10.80;99.90;;;;;;10369460;28;85109;-55
2021/12/16 11:52:17;;;;;;;40.22;13.93;;;10.90;99.90;;;;;;10368843;28;84894;-56
2021/12/16 11:57:31;;;;;;;37.15;13.27;;;10.90;99.90;;;;;;10369155;28;84038;-52
2021/12/16 12:02:38;;;;;;;31.58;13.55;;;11.00;99.90;;;;;;10368251;28;84039;-56
2021/12/16 12:07:41;;;;;;;35.97;13.25;;;11.10;99.90;;;;;;10367838;28;84181;-54
2021/12/16 12:12:49;;;;;;;33.30;13.82;;;11.00;99.90;;;;;;10366941;28;84034;-54
2021/12/16 12:17:55;;;;;;;31.98;12.88;;;11.00;99.90;;;;;;10366913;28;84053;-55
2021/12/16 12:22:58;;;;;;;35.85;13.68;;;11.10;99.90;;;;;;10372447;28;85015;-56
2021/12/16 12:27:59;;;;;;;34.67;14.48;;;11.20;99.90;;;;;;10374502;28;84298;-53
2021/12/16 12:32:59;;;;;;;38.65;13.77;;;11.20;99.90;;;;;;10372170;28;87038;-56
2021/12/16 12:38:01;;;;;;;38.33;13.23;;;11.20;99.90;;;;;;10373445;28;84967;-54
2021/12/16 12:43:04;;;;;;;38.03;14.85;;;11.20;99.90;;;;;;10373734;28;84066;-51
2021/12/16 12:48:12;;;;;;;38.45;13.70;;;11.20;99.90;;;;;;10372995;28;84923;-51
2021/12/16 12:53:23;;;;;;;41.55;14.90;;;11.20;99.90;;;;;;10371655;28;84943;-54
2021/12/16 12:58:27;;;;;;;40.72;14.52;;;11.20;99.90;;;;;;10373563;28;85103;-55
2021/12/16 13:03:35;;;;;;;34.88;13.75;;;11.20;99.90;;;;;;10372690;28;84067;-54
2021/12/16 13:08:39;;;;;;;36.65;13.50;;;11.20;99.90;;;;;;10372885;28;85014;-54
2021/12/16 13:14:24;;;;;;;38.38;13.73;;;11.30;99.90;;;;;;10372422;28;84034;-54
2021/12/16 13:40:24;;;;;;;42.17;15.70;;;11.20;99.90;;;;;;10371524;28;84021;-54
2021/12/16 13:45:51;;;;;;;46.60;15.98;;;11.00;99.90;;;;;;10371397;28;85830;-55
2021/12/16 14:17:50;;;;;;;49.50;16.65;;;11.20;99.90;;;;;;10411304;28;85409;-46
2021/12/16 14:23:09;;;;;;;44.35;14.60;;;11.20;99.90;;;;;;10434465;28;84435;-48
2021/12/16 14:49:28;;;;;;;49.60;16.65;;;10.90;99.90;;;;;;10450889;28;86524;-44
2021/12/16 14:54:34;;;;;;;49.92;15.75;;;11.00;99.90;;;;;;10452691;27;84212;-45
2021/12/16 14:59:35;;;;;;;52.60;17.60;;;10.90;99.90;;;;;;10452318;27;84882;-48
2021/12/16 15:04:35;;;;;;;42.97;16.25;;;10.90;99.90;;;;;;10452513;27;84794;-44
2021/12/16 15:09:39;;;;;;;53.33;16.05;;;11.00;99.90;;;;;;10452532;28;83998;-48
2021/12/16 15:15:03;;;;;;;46.28;17.40;;;10.90;99.90;;;;;;10451903;28;84197;-46
2021/12/16 15:46:55;;;;;;;56.50;17.95;;;10.60;99.90;;;;;;10451771;27;84754;-45
2021/12/16 15:51:56;;;;;;;56.28;17.48;;;10.60;99.90;;;;;;10451726;27;84156;-48
2021/12/16 15:56:57;;;;;;;52.85;18.27;;;10.60;99.90;;;;;;10460057;27;84887;-44
2021/12/16 16:01:59;;;;;;;52.60;17.52;;;10.60;99.90;;;;;;10457705;27;84284;-46
2021/12/16 16:07:05;;;;;;;52.55;18.17;;;10.60;99.90;;;;;;10457676;28;84397;-44
2021/12/16 16:12:07;;;;;;;51.72;17.48;;;10.60;99.90;;;;;;10457288;27;84017;-46
2021/12/16 16:17:14;;;;;;;56.60;19.25;;;10.60;99.90;;;;;;10438175;28;86010;-45
2021/12/16 16:22:15;;;;;;;48.53;16.95;;;10.60;99.90;;;;;;10457025;27;85036;-45
2021/12/16 16:27:24;;;;;;;52.90;17.75;;;10.60;99.90;;;;;;10456589;28;84313;-46
2021/12/16 16:32:29;;;;;;;53.13;18.30;;;10.60;99.90;;;;;;10456897;28;84093;-46
2021/12/16 16:37:32;;;;;;;51.70;17.08;;;10.50;99.90;;;;;;10451704;27;85846;-46
2021/12/16 16:42:37;;;;;;;50.92;17.63;;;10.50;99.90;;;;;;10452222;28;85308;-46
2021/12/16 16:47:50;;;;;;;51.67;16.38;;;10.50;99.90;;;;;;10452936;27;85078;-46
2021/12/16 16:52:53;;;;;;;48.85;18.65;;;10.50;99.90;;;;;;10455623;27;84099;-45
2021/12/16 16:57:58;;;;;;;47.97;17.23;;;10.50;99.90;;;;;;10452804;27;84008;-44
2021/12/16 17:03:09;;;;;;;52.92;17.55;;;10.60;99.90;;;;;;10451384;27;84033;-46
2021/12/16 17:08:15;;;;;;;40.95;16.25;;;10.60;99.90;;;;;;10444260;28;85483;-47
2021/12/16 17:13:24;;;;;;;46.22;16.45;;;10.60;99.90;;;;;;10450441;27;84999;-47
2021/12/16 17:18:30;;;;;;;51.35;16.73;;;10.60;99.90;;;;;;10450496;28;84241;-46
2021/12/16 17:23:33;;;;;;;41.22;15.68;;;10.60;99.90;;;;;;10433597;28;86018;-46
2021/12/16 17:28:34;;;;;;;38.95;15.23;;;10.60;99.90;;;;;;10451582;27;83891;-46
2021/12/16 17:33:35;;;;;;;45.60;15.55;;;10.50;99.90;;;;;;10448647;27;84183;-46
2021/12/16 17:38:38;;;;;;;44.35;15.60;;;10.50;99.90;;;;;;10450874;28;84847;-49
2021/12/16 17:43:41;;;;;;;47.25;17.15;;;10.50;99.90;;;;;;10453796;27;84107;-46
2021/12/16 17:48:48;;;;;;;40.78;14.75;;;10.50;99.90;;;;;;10453208;27;84194;-47
2021/12/16 17:53:53;;;;;;;46.42;15.95;;;10.50;99.90;;;;;;10447295;28;85233;-48
2021/12/16 17:58:59;;;;;;;38.55;15.52;;;10.50;99.90;;;;;;10449362;27;85748;-50
2021/12/16 18:04:04;;;;;;;43.30;16.17;;;10.40;99.90;;;;;;10447971;27;84642;-46
2021/12/16 18:09:18;;;;;;;46.38;16.33;;;10.40;99.90;;;;;;10451796;28;84976;-48
2021/12/16 18:14:27;;;;;;;48.47;15.95;;;10.50;99.90;;;;;;10453774;27;84318;-50
2021/12/16 18:19:37;;;;;;;52.60;16.70;;;10.50;99.90;;;;;;10451565;27;85917;-48
2021/12/16 18:24:42;;;;;;;58.17;17.88;;;10.40;99.90;;;;;;10451978;28;86053;-48
2021/12/16 18:29:43;;;;;;;49.25;16.30;;;10.40;99.90;;;;;;10452756;28;84240;-48
2021/12/16 18:34:50;;;;;;;54.90;17.25;;;10.40;99.90;;;;;;10442752;27;84489;-45
2021/12/16 18:39:53;;;;;;;52.20;16.80;;;10.30;99.90;;;;;;10410420;27;84183;-47
2021/12/16 18:45:02;;;;;;;44.53;14.35;;;10.30;99.90;;;;;;10421772;27;84847;-47
2021/12/16 18:55:42;;;;;;;44.25;14.93;;;10.30;99.90;;;;;;10442664;28;84248;-49
2021/12/16 19:00:47;;;;;;;40.03;15.30;;;10.30;99.90;;;;;;10447953;28;84749;-47
2021/12/16 19:05:48;;;;;;;47.42;15.55;;;10.30;99.90;;;;;;10446074;27;85915;-50
2021/12/16 19:10:49;;;;;;;52.10;16.23;;;10.20;99.90;;;;;;10448202;27;85310;-46
2021/12/16 19:15:52;;;;;;;39.00;15.30;;;10.10;99.90;;;;;;10441880;27;84302;-46
2021/12/16 19:20:53;;;;;;;46.75;15.77;;;10.20;99.90;;;;;;10442836;27;85719;-46
2021/12/16 19:25:55;;;;;;;48.15;16.25;;;10.10;99.90;;;;;;10450302;27;84275;-45
2021/12/16 19:31:00;;;;;;;49.72;16.98;;;10.00;99.90;;;;;;10449513;28;84190;-45
2021/12/16 19:36:05;;;;;;;40.78;14.07;;;10.10;99.90;;;;;;10450704;28;85220;-46
2021/12/16 19:41:10;;;;;;;36.95;14.38;;;10.20;99.90;;;;;;10451032;27;84090;-46
2021/12/16 19:46:11;;;;;;;38.50;13.32;;;10.10;99.90;;;;;;10439985;28;85258;-45
2021/12/16 19:51:18;;;;;;;33.05;12.15;;;10.10;99.90;;;;;;10449565;27;84290;-44
2021/12/16 19:56:19;;;;;;;37.15;12.85;;;10.10;99.90;;;;;;10449511;27;84259;-44
2021/12/16 20:01:24;;;;;;;38.70;13.23;;;10.10;99.90;;;;;;10449190;27;84199;-45
2021/12/16 20:06:27;;;;;;;34.70;13.02;;;10.10;99.90;;;;;;10450861;27;84863;-46
2021/12/16 20:11:31;;;;;;;44.60;14.27;;;10.10;99.90;;;;;;10453900;22;85469;-53
2021/12/16 20:16:38;;;;;;;38.70;12.18;;;10.00;99.90;;;;;;10404178;28;84320;-53
2021/12/16 20:21:43;;;;;;;36.72;13.95;;;10.10;99.90;;;;;;10413067;28;84943;-54
2021/12/16 20:26:55;;;;;;;38.70;12.90;;;10.00;99.90;;;;;;10448677;27;85239;-53
2021/12/16 20:32:18;;;;;;;33.70;12.70;;;10.10;99.90;;;;;;10449145;27;84914;-50
2021/12/16 20:37:22;;;;;;;40.50;13.88;;;10.00;99.90;;;;;;10438061;28;85472;-53
2021/12/16 20:42:28;;;;;;;31.17;12.10;;;10.00;99.90;;;;;;10430329;27;84102;-55
2021/12/16 20:47:29;;;;;;;38.25;12.93;;;10.10;99.90;;;;;;10445593;28;85683;-51
2021/12/16 20:52:34;;;;;;;39.03;13.95;;;10.10;99.90;;;;;;10453875;28;84957;-53
2021/12/16 20:57:35;;;;;;;38.40;12.35;;;10.10;99.90;;;;;;10451994;28;85445;-54
2021/12/16 21:02:37;;;;;;;36.88;12.52;;;10.10;99.90;;;;;;10434986;28;84968;-54
2021/12/16 21:07:38;;;;;;;39.95;14.10;;;10.00;99.90;;;;;;10448923;28;84097;-54
2021/12/16 21:12:39;;;;;;;37.38;12.80;;;10.00;99.90;;;;;;10450782;27;84263;-56
2021/12/16 21:17:42;;;;;;;40.78;13.43;;;10.00;99.90;;;;;;10461660;27;86674;-51
2021/12/16 21:22:42;;;;;;;36.47;12.05;;;10.10;99.90;;;;;;10465094;27;84242;-53
2021/12/16 21:27:44;;;;;;;37.20;13.05;;;10.20;99.90;;;;;;10455423;27;84195;-55
2021/12/16 21:32:45;;;;;;;36.17;13.02;;;10.20;99.90;;;;;;10471528;27;84301;-55
2021/12/16 21:37:46;;;;;;;34.17;13.27;;;10.30;99.90;;;;;;10464325;27;85758;-52
2021/12/16 21:42:47;;;;;;;37.65;14.05;;;10.30;99.90;;;;;;10454532;27;85200;-53
2021/12/16 21:47:50;;;;;;;35.63;14.43;;;10.20;99.90;;;;;;10478336;27;84835;-55
2021/12/16 21:52:51;;;;;;;39.17;14.23;;;10.30;99.90;;;;;;10478852;27;84129;-54
2021/12/16 21:57:53;;;;;;;40.35;14.18;;;10.30;99.90;;;;;;10470926;27;84780;-52
2021/12/16 22:02:56;;;;;;;41.15;14.48;;;10.20;99.90;;;;;;10470026;27;85326;-55
2021/12/16 22:07:58;;;;;;;41.88;13.85;;;10.20;99.90;;;;;;10469627;27;87569;-53
2021/12/16 22:12:58;;;;;;;41.95;14.38;;;10.30;99.90;;;;;;10475041;27;84060;-57
2021/12/16 22:18:01;;;;;;;38.05;13.63;;;10.20;99.90;;;;;;10495579;27;84466;-56
2021/12/16 22:23:05;;;;;;;41.45;13.65;;;10.10;99.90;;;;;;10495128;27;84122;-53
2021/12/16 22:28:06;;;;;;;43.30;14.00;;;10.10;99.90;;;;;;10494733;27;83957;-56
2021/12/16 22:33:09;;;;;;;46.25;15.50;;;10.00;99.90;;;;;;10494837;27;83995;-55
2021/12/16 22:38:09;;;;;;;47.85;16.08;;;10.00;99.90;;;;;;10468699;27;84206;-56
2021/12/16 22:43:11;;;;;;;39.20;13.82;;;9.90;99.90;;;;;;10452355;28;84793;-56
2021/12/16 22:48:11;;;;;;;43.85;13.60;;;10.00;99.90;;;;;;10451799;28;85004;-54
2021/12/16 22:53:12;;;;;;;36.50;13.57;;;10.00;99.90;;;;;;10449797;28;86857;-54
2021/12/16 22:58:17;;;;;;;40.20;13.18;;;10.10;99.90;;;;;;10450168;28;84236;-53
2021/12/16 23:03:19;;;;;;;41.30;14.05;;;10.00;99.90;;;;;;10450569;27;84454;-54
2021/12/16 23:08:21;;;;;;;40.10;14.10;;;10.00;99.90;;;;;;10451183;28;84299;-55
2021/12/16 23:13:26;;;;;;;43.42;13.95;;;10.00;99.90;;;;;;10451638;27;85056;-55
2021/12/16 23:23:28;;;;;;;39.10;13.40;;;10.00;99.90;;;;;;10451993;27;83992;-56
2021/12/16 23:28:29;;;;;;;43.05;14.20;;;10.00;99.90;;;;;;10450950;28;84931;-53
2021/12/16 23:33:31;;;;;;;39.20;13.15;;;10.00;99.90;;;;;;10450711;28;84095;-54
2021/12/16 23:54:30;;;;;;;38.55;13.55;;;10.00;99.90;;;;;;10450811;27;84712;-52
2021/12/16 23:59:33;;;;;;;35.70;12.40;;;9.90;99.90;;;;;;10448524;28;87149;-53
